Time;durP1;ratioP1;P1;durP2;ratioP2;P2;SDS_P1;SDS_P2;PMS_P1;PMS_P2;Temp;Humidity;BMP_temperature;BMP_pressure;BME280_temperature;BME280_humidity;BME280_pressure;Samples;Min_cycle;Max_cycle;Signal;HPM_P1;HPM_P2
2023/05/08 00:01:29;;;;;;;22.63;12.77;;;4.60;99.90;;;;;;5030828;28;20199;-76
2023/05/08 00:03:56;;;;;;;22.60;13.17;;;4.60;99.90;;;;;;5031377;28;20205;-75
2023/05/08 00:06:23;;;;;;;24.07;13.10;;;4.50;99.90;;;;;;5034104;28;20199;-76
2023/05/08 00:08:50;;;;;;;22.17;13.37;;;4.50;99.90;;;;;;5033284;28;20199;-76
2023/05/08 00:11:17;;;;;;;21.33;12.60;;;4.50;99.90;;;;;;5034410;28;20191;-76
2023/05/08 00:13:44;;;;;;;23.13;12.73;;;4.70;99.90;;;;;;5034237;28;20204;-77
2023/05/08 00:16:11;;;;;;;21.57;12.53;;;4.50;99.90;;;;;;5033152;28;20207;-75
2023/05/08 00:18:39;;;;;;;20.60;12.00;;;4.60;99.90;;;;;;5033109;28;20252;-75
2023/05/08 00:21:06;;;;;;;19.57;12.17;;;4.50;99.90;;;;;;5034459;28;20273;-75
2023/05/08 00:23:33;;;;;;;18.43;11.47;;;4.50;99.90;;;;;;5032861;28;20195;-74
2023/05/08 00:26:00;;;;;;;21.53;12.00;;;4.70;99.90;;;;;;5032840;28;20277;-76
2023/05/08 00:28:27;;;;;;;18.60;11.43;;;4.50;99.90;;;;;;5032503;28;20183;-74
2023/05/08 00:30:53;;;;;;;18.40;11.47;;;4.50;99.90;;;;;;5034141;28;20286;-74
2023/05/08 00:33:20;;;;;;;17.80;10.90;;;4.50;99.90;;;;;;5032759;28;20208;-74
2023/05/08 00:35:47;;;;;;;20.73;11.20;;;4.70;99.90;;;;;;5032214;28;20370;-74
2023/05/08 00:38:14;;;;;;;19.17;11.53;;;4.40;99.90;;;;;;5034229;28;20244;-73
2023/05/08 00:40:42;;;;;;;16.13;10.70;;;4.50;99.90;;;;;;5032554;28;20762;-74
2023/05/08 00:43:09;;;;;;;19.50;10.97;;;4.50;99.90;;;;;;5033694;28;20549;-75
2023/05/08 00:45:38;;;;;;;20.90;12.03;;;4.50;99.90;;;;;;5032438;28;20199;-75
2023/05/08 00:48:06;;;;;;;19.20;11.00;;;4.50;99.90;;;;;;5033603;28;20247;-75
2023/05/08 00:50:35;;;;;;;19.40;11.83;;;4.40;99.90;;;;;;5032118;28;20289;-74
2023/05/08 00:53:03;;;;;;;18.03;11.10;;;4.70;99.90;;;;;;5015844;28;20225;-73
2023/05/08 00:55:31;;;;;;;18.83;11.20;;;4.40;99.90;;;;;;5032247;28;20331;-75
2023/05/08 00:57:59;;;;;;;19.83;11.00;;;4.50;99.90;;;;;;5031991;28;20648;-74
2023/05/08 01:00:26;;;;;;;19.93;11.13;;;4.40;99.90;;;;;;5032429;28;20272;-75
2023/05/08 01:02:53;;;;;;;18.83;11.10;;;4.40;99.90;;;;;;5032232;28;20196;-74
2023/05/08 01:05:20;;;;;;;18.97;10.30;;;4.40;99.90;;;;;;5031998;28;20260;-76
2023/05/08 01:07:47;;;;;;;21.60;11.43;;;4.40;99.90;;;;;;5032131;28;20209;-75
2023/05/08 01:10:15;;;;;;;19.70;11.47;;;4.60;99.90;;;;;;5032350;28;20283;-75
2023/05/08 01:13:10;;;;;;;18.37;10.93;;;4.50;99.90;;;;;;5033430;28;20288;-76
2023/05/08 01:15:43;;;;;;;19.97;10.77;;;4.40;99.90;;;;;;5031798;28;20216;-76
2023/05/08 01:18:14;;;;;;;18.70;10.67;;;4.30;99.90;;;;;;5031892;28;20720;-76
2023/05/08 01:21:19;;;;;;;16.07;10.27;;;4.30;99.90;;;;;;5031663;28;20227;-76
2023/05/08 01:24:08;;;;;;;17.23;10.40;;;4.20;99.90;;;;;;5033008;28;20196;-74
2023/05/08 01:27:17;;;;;;;18.43;10.37;;;4.10;99.90;;;;;;5032761;28;20644;-74
2023/05/08 01:30:24;;;;;;;16.47;9.93;;;4.10;99.90;;;;;;5031677;28;20205;-75
2023/05/08 01:33:06;;;;;;;17.07;10.07;;;4.10;99.90;;;;;;5013954;28;20211;-75
2023/05/08 01:35:45;;;;;;;20.40;10.20;;;4.00;99.90;;;;;;5030277;28;20289;-75
2023/05/08 01:38:27;;;;;;;18.07;10.63;;;4.00;99.90;;;;;;5014092;28;20682;-76
2023/05/08 01:40:58;;;;;;;17.27;10.77;;;4.10;99.90;;;;;;5030097;28;20239;-74
2023/05/08 01:43:29;;;;;;;20.83;11.13;;;4.10;99.90;;;;;;5030165;28;20198;-75
2023/05/08 01:45:58;;;;;;;18.70;10.57;;;4.00;99.90;;;;;;5030178;28;20201;-74
2023/05/08 01:48:42;;;;;;;20.07;11.43;;;4.00;99.90;;;;;;5029894;28;20238;-76
2023/05/08 01:51:18;;;;;;;18.43;10.33;;;4.00;99.90;;;;;;5030107;28;20283;-75
2023/05/08 01:53:49;;;;;;;18.50;11.10;;;4.40;99.90;;;;;;5030220;28;20226;-75
2023/05/08 01:56:21;;;;;;;18.73;11.13;;;4.00;99.90;;;;;;5013144;28;20721;-75
2023/05/08 01:58:53;;;;;;;20.07;11.67;;;4.00;99.90;;;;;;5013382;28;20194;-76
2023/05/08 02:01:24;;;;;;;18.53;10.83;;;4.00;99.90;;;;;;4996941;28;20198;-75
2023/05/08 02:03:53;;;;;;;19.63;11.17;;;3.90;99.90;;;;;;5029877;28;20195;-76
2023/05/08 02:06:21;;;;;;;19.47;10.87;;;3.90;99.90;;;;;;5016488;28;20210;-75
2023/05/08 02:08:49;;;;;;;20.10;11.20;;;3.90;99.90;;;;;;5030778;28;20210;-76
2023/05/08 02:11:17;;;;;;;19.03;10.87;;;3.80;99.90;;;;;;5031369;28;20222;-75
2023/05/08 02:13:46;;;;;;;18.63;11.20;;;3.80;99.90;;;;;;5030777;28;20199;-75
2023/05/08 02:16:14;;;;;;;20.30;11.03;;;3.80;99.90;;;;;;5030956;28;20298;-75
2023/05/08 02:18:45;;;;;;;16.47;10.07;;;3.70;99.90;;;;;;5030882;28;20210;-75
2023/05/08 02:21:14;;;;;;;16.13;10.37;;;3.80;99.90;;;;;;5030906;28;20234;-74
2023/05/08 02:23:43;;;;;;;16.57;10.43;;;3.80;99.90;;;;;;5030496;28;20203;-76
2023/05/08 02:26:14;;;;;;;18.17;11.03;;;3.90;99.90;;;;;;5029842;28;20566;-75
2023/05/08 02:28:42;;;;;;;17.63;10.83;;;3.90;99.90;;;;;;5029289;28;20237;-75
2023/05/08 02:31:11;;;;;;;16.03;9.90;;;3.80;99.90;;;;;;5032088;28;20210;-76
2023/05/08 02:33:41;;;;;;;18.47;10.50;;;4.10;99.90;;;;;;5030508;28;20206;-75
2023/05/08 02:36:09;;;;;;;15.67;9.97;;;4.10;99.90;;;;;;5030884;28;20244;-76
2023/05/08 02:38:38;;;;;;;15.50;9.83;;;3.80;99.90;;;;;;5030820;28;20705;-77
2023/05/08 02:41:07;;;;;;;16.27;10.20;;;3.80;99.90;;;;;;5030334;28;20226;-75
2023/05/08 02:43:34;;;;;;;18.63;10.30;;;3.70;99.90;;;;;;5032567;28;20195;-73
2023/05/08 02:46:34;;;;;;;17.03;10.40;;;3.80;99.90;;;;;;5032215;28;20200;-76
2023/05/08 02:49:11;;;;;;;17.70;9.97;;;3.80;99.90;;;;;;5030180;28;20572;-76
2023/05/08 02:51:50;;;;;;;17.80;10.53;;;3.80;99.90;;;;;;5030001;28;20203;-75
2023/05/08 02:54:38;;;;;;;17.40;10.37;;;3.80;99.90;;;;;;5029807;28;20226;-76
2023/05/08 02:57:18;;;;;;;18.00;11.03;;;3.70;99.90;;;;;;5029961;28;20234;-76
2023/05/08 02:59:55;;;;;;;17.80;11.03;;;3.70;99.90;;;;;;5029862;28;20245;-75
2023/05/08 03:02:38;;;;;;;15.77;10.63;;;3.60;99.90;;;;;;5031820;28;20196;-77
2023/05/08 03:05:15;;;;;;;19.33;11.03;;;3.60;99.90;;;;;;5032045;28;20199;-76
2023/05/08 03:07:46;;;;;;;18.03;11.03;;;3.70;99.90;;;;;;5030736;28;20195;-76
2023/05/08 03:10:15;;;;;;;18.50;11.53;;;3.70;99.90;;;;;;5030775;28;20677;-76
2023/05/08 03:12:46;;;;;;;18.63;11.53;;;3.80;99.90;;;;;;5031399;28;20234;-76
2023/05/08 03:15:23;;;;;;;19.93;11.60;;;3.60;99.90;;;;;;5031410;28;20297;-75
2023/05/08 03:17:54;;;;;;;18.87;11.40;;;3.70;99.90;;;;;;5031879;28;20186;-75
2023/05/08 03:20:23;;;;;;;18.33;11.33;;;3.90;99.90;;;;;;5030009;28;20235;-75
2023/05/08 03:22:53;;;;;;;22.60;12.03;;;3.70;99.90;;;;;;5029679;28;20208;-75
2023/05/08 03:25:21;;;;;;;17.17;11.10;;;3.70;99.90;;;;;;5030245;28;20211;-75
2023/05/08 03:27:50;;;;;;;17.60;11.67;;;3.70;99.90;;;;;;5029762;28;20202;-75
2023/05/08 03:30:19;;;;;;;18.97;10.80;;;3.70;99.90;;;;;;5030151;28;20215;-75
2023/05/08 03:32:47;;;;;;;18.13;10.50;;;3.70;99.90;;;;;;5031264;28;20539;-75
2023/05/08 03:35:15;;;;;;;20.90;12.53;;;3.70;99.90;;;;;;5030925;28;20195;-76
2023/05/08 03:37:42;;;;;;;18.50;11.43;;;3.80;99.90;;;;;;5013611;28;20203;-75
2023/05/08 03:40:09;;;;;;;19.87;11.80;;;3.90;99.90;;;;;;5034772;28;20652;-75
2023/05/08 03:42:38;;;;;;;19.23;11.27;;;3.80;99.90;;;;;;5033954;28;20198;-75
2023/05/08 03:45:08;;;;;;;18.20;10.90;;;3.80;99.90;;;;;;5033390;28;20215;-76
2023/05/08 03:47:36;;;;;;;20.43;10.47;;;3.80;99.90;;;;;;5035517;28;20289;-74
2023/05/08 03:50:03;;;;;;;16.77;10.70;;;3.90;99.90;;;;;;5033102;28;20253;-75
2023/05/08 03:52:31;;;;;;;17.63;10.70;;;3.90;99.90;;;;;;5033483;28;20223;-74
2023/05/08 03:54:58;;;;;;;17.90;10.57;;;4.10;99.90;;;;;;5019717;28;20556;-75
2023/05/08 03:57:29;;;;;;;17.23;10.80;;;4.00;99.90;;;;;;5044745;28;20702;-75
2023/05/08 04:00:02;;;;;;;18.07;10.40;;;4.10;99.90;;;;;;5047823;28;20318;-75
2023/05/08 04:02:49;;;;;;;19.30;10.67;;;4.10;99.90;;;;;;5032819;28;20224;-75
2023/05/08 04:05:30;;;;;;;14.43;9.47;;;4.10;99.90;;;;;;5032875;28;20586;-75
2023/05/08 04:08:26;;;;;;;16.90;10.13;;;4.30;99.90;;;;;;5034568;28;20528;-74
2023/05/08 04:11:12;;;;;;;16.43;9.77;;;4.40;99.90;;;;;;5032513;28;20207;-75
2023/05/08 04:13:53;;;;;;;15.07;9.43;;;4.50;99.90;;;;;;5034074;28;20194;-75
2023/05/08 04:16:26;;;;;;;14.40;9.20;;;4.60;99.90;;;;;;5032734;28;20198;-75
2023/05/08 04:19:01;;;;;;;15.47;9.17;;;4.60;99.90;;;;;;5033365;28;20550;-76
2023/05/08 04:21:32;;;;;;;15.00;9.07;;;4.70;99.90;;;;;;5032437;28;20224;-75
2023/05/08 04:24:02;;;;;;;17.43;9.20;;;4.80;99.90;;;;;;5032518;28;20300;-75
2023/05/08 04:26:29;;;;;;;14.00;9.03;;;4.80;99.90;;;;;;5034058;28;20196;-75
2023/05/08 04:28:57;;;;;;;14.90;8.57;;;4.90;99.90;;;;;;5032533;28;20674;-74
2023/05/08 04:31:25;;;;;;;14.43;9.03;;;4.90;99.90;;;;;;5032859;28;20206;-75
2023/05/08 04:33:53;;;;;;;14.60;8.67;;;5.00;99.90;;;;;;5033730;28;20687;-74
2023/05/08 04:36:20;;;;;;;14.00;9.13;;;5.00;99.90;;;;;;5032377;28;20212;-76
2023/05/08 04:38:47;;;;;;;13.97;8.53;;;5.10;99.90;;;;;;5032687;28;20199;-75
2023/05/08 04:41:14;;;;;;;13.00;8.60;;;5.20;99.90;;;;;;5033958;28;20212;-75
2023/05/08 04:43:41;;;;;;;12.53;7.90;;;5.20;99.90;;;;;;5016585;28;20245;-76
2023/05/08 04:46:09;;;;;;;14.33;8.93;;;5.30;99.90;;;;;;5032547;28;20209;-76
2023/05/08 04:48:36;;;;;;;14.43;8.23;;;5.40;99.90;;;;;;5033134;28;20202;-74
2023/05/08 04:51:03;;;;;;;12.00;8.50;;;5.70;99.90;;;;;;5033491;28;20493;-74
2023/05/08 04:53:30;;;;;;;12.43;7.77;;;5.40;99.90;;;;;;5033043;28;20595;-77
2023/05/08 04:55:58;;;;;;;12.73;7.43;;;5.80;99.90;;;;;;5033242;28;20631;-77
2023/05/08 04:58:25;;;;;;;13.77;8.63;;;5.70;99.90;;;;;;5033598;28;20200;-75
2023/05/08 05:00:52;;;;;;;14.53;8.17;;;5.80;99.90;;;;;;5033347;28;20230;-76
2023/05/08 05:03:19;;;;;;;12.33;7.87;;;5.90;99.90;;;;;;5032262;28;20236;-76
2023/05/08 05:05:46;;;;;;;10.83;7.30;;;6.10;99.90;;;;;;5031772;28;20202;-76
2023/05/08 05:08:13;;;;;;;9.77;6.73;;;6.20;99.90;;;;;;5032891;28;20198;-76
2023/05/08 05:10:39;;;;;;;12.83;7.30;;;6.20;99.90;;;;;;5032485;28;20659;-78
2023/05/08 05:13:06;;;;;;;11.07;6.87;;;6.30;99.90;;;;;;5036916;28;20664;-77
2023/05/08 05:15:33;;;;;;;10.30;6.10;;;6.40;99.90;;;;;;5039558;28;20192;-78
2023/05/08 05:18:00;;;;;;;9.23;6.30;;;6.50;99.90;;;;;;5033114;28;20566;-78
2023/05/08 05:20:27;;;;;;;11.00;7.03;;;6.70;99.90;;;;;;5032993;28;20326;-78
2023/05/08 05:22:55;;;;;;;10.50;6.30;;;6.60;99.90;;;;;;5044877;28;20198;-75
2023/05/08 05:25:22;;;;;;;9.77;6.63;;;6.70;99.90;;;;;;5037555;28;20615;-78
2023/05/08 05:27:49;;;;;;;13.17;7.70;;;6.70;99.90;;;;;;5040958;28;20194;-79
2023/05/08 05:30:16;;;;;;;9.63;7.10;;;6.80;99.90;;;;;;5032406;28;20195;-78
2023/05/08 05:32:43;;;;;;;10.50;7.73;;;6.90;99.90;;;;;;5049747;28;20201;-76
2023/05/08 05:35:10;;;;;;;9.60;7.10;;;7.30;99.90;;;;;;5053456;28;20197;-78
2023/05/08 05:37:40;;;;;;;9.80;6.10;;;7.20;99.90;;;;;;5054064;28;20210;-76
2023/05/08 05:40:08;;;;;;;8.70;5.20;;;7.20;99.90;;;;;;5051683;28;20686;-77
2023/05/08 05:42:34;;;;;;;8.27;5.37;;;7.30;99.90;;;;;;5052726;28;20201;-76
2023/05/08 05:45:01;;;;;;;7.30;5.00;;;7.40;99.90;;;;;;5051051;28;20187;-74
2023/05/08 05:47:28;;;;;;;5.60;4.10;;;7.50;99.90;;;;;;5050901;28;20226;-78
2023/05/08 05:49:56;;;;;;;5.83;4.13;;;7.50;99.90;;;;;;5052894;28;20596;-76
2023/05/08 05:52:23;;;;;;;5.83;4.10;;;7.60;99.90;;;;;;5051014;28;20285;-78
2023/05/08 05:54:55;;;;;;;7.00;4.70;;;7.70;99.90;;;;;;5051193;28;20182;-76
2023/05/08 05:57:32;;;;;;;6.70;4.50;;;7.80;99.90;;;;;;5050959;28;20203;-77
2023/05/08 06:00:04;;;;;;;6.60;4.03;;;8.00;99.90;;;;;;5051192;28;20226;-76
2023/05/08 06:02:52;;;;;;;5.27;3.63;;;8.00;99.90;;;;;;5050571;28;20671;-80
2023/05/08 06:05:41;;;;;;;6.67;4.40;;;7.90;99.90;;;;;;5037815;28;20211;-84
2023/05/08 06:08:19;;;;;;;5.80;4.07;;;8.20;99.90;;;;;;5036984;28;20281;-78
2023/05/08 06:10:58;;;;;;;6.00;3.80;;;8.30;99.90;;;;;;5051235;28;20195;-78
2023/05/08 06:13:25;;;;;;;7.53;4.40;;;8.40;99.90;;;;;;5050603;28;20198;-77
2023/05/08 06:15:55;;;;;;;7.43;4.30;;;8.50;99.90;;;;;;5050399;28;20633;-75
2023/05/08 06:18:22;;;;;;;6.97;4.13;;;8.60;99.90;;;;;;5051530;28;20203;-84
2023/05/08 06:20:59;;;;;;;6.63;3.93;;;8.80;99.90;;;;;;5050783;28;20226;-81
2023/05/08 06:23:26;;;;;;;7.57;4.03;;;8.80;99.90;;;;;;5051856;28;20202;-86
2023/05/08 06:25:55;;;;;;;5.97;3.93;;;8.80;99.90;;;;;;5051924;28;20199;-81
2023/05/08 06:28:25;;;;;;;6.17;3.80;;;8.80;99.90;;;;;;5052606;28;20226;-79
2023/05/08 06:30:52;;;;;;;4.80;3.17;;;8.90;99.90;;;;;;5034651;28;20199;-78
2023/05/08 06:33:20;;;;;;;4.60;3.30;;;8.90;99.90;;;;;;5050258;28;20199;-80
2023/05/08 06:35:47;;;;;;;5.17;3.57;;;9.10;99.90;;;;;;5050307;28;20191;-79
2023/05/08 06:38:15;;;;;;;5.47;3.20;;;9.40;99.90;;;;;;5051493;28;20623;-79
2023/05/08 06:40:45;;;;;;;4.07;2.87;;;9.40;99.90;;;;;;5047827;28;20272;-76
2023/05/08 06:43:12;;;;;;;4.47;2.50;;;9.40;99.90;;;;;;5058656;28;20289;-76
2023/05/08 06:45:39;;;;;;;4.37;2.73;;;9.60;99.90;;;;;;5050002;28;20663;-77
2023/05/08 06:48:06;;;;;;;5.33;3.10;;;9.50;99.90;;;;;;5049852;28;20198;-79
2023/05/08 06:50:36;;;;;;;4.57;2.80;;;9.50;99.90;;;;;;5056948;28;20270;-77
2023/05/08 06:53:04;;;;;;;4.10;2.63;;;9.50;99.90;;;;;;5046365;28;20219;-77
2023/05/08 06:55:31;;;;;;;4.23;2.50;;;9.70;99.90;;;;;;5029844;28;20314;-77
2023/05/08 06:57:58;;;;;;;5.07;2.37;;;9.70;99.90;;;;;;5049854;28;20247;-80
2023/05/08 07:00:25;;;;;;;4.10;2.30;;;10.00;99.90;;;;;;5071798;28;20249;-79
2023/05/08 07:02:52;;;;;;;6.00;2.60;;;9.90;99.90;;;;;;5070059;28;20228;-76
2023/05/08 07:05:19;;;;;;;3.33;2.00;;;10.10;99.90;;;;;;5069809;28;20779;-80
2023/05/08 07:07:46;;;;;;;5.57;2.40;;;10.10;99.90;;;;;;5069907;28;20210;-76
2023/05/08 07:10:13;;;;;;;4.60;2.50;;;10.10;99.90;;;;;;5069857;28;20245;-77
2023/05/08 07:12:40;;;;;;;4.57;2.10;;;10.40;99.90;;;;;;5071350;28;20670;-76
2023/05/08 07:15:09;;;;;;;3.57;2.40;;;10.40;99.90;;;;;;5065180;28;20253;-69
2023/05/08 07:17:50;;;;;;;4.90;2.30;;;10.40;99.90;;;;;;5053847;28;20229;-72
2023/05/08 07:20:28;;;;;;;4.80;2.37;;;10.50;99.90;;;;;;5056061;28;20187;-75
2023/05/08 07:22:55;;;;;;;3.33;2.40;;;10.50;99.90;;;;;;5053754;28;20209;-79
2023/05/08 07:25:22;;;;;;;3.47;2.40;;;10.60;99.90;;;;;;5061148;28;20218;-81
2023/05/08 07:27:49;;;;;;;4.23;2.40;;;10.60;99.90;;;;;;5054942;28;20285;-83
2023/05/08 07:30:16;;;;;;;6.07;2.30;;;10.60;99.90;;;;;;5055766;28;20178;-82
2023/05/08 07:32:43;;;;;;;3.87;2.20;;;10.60;99.90;;;;;;5037315;28;20221;-82
2023/05/08 07:35:11;;;;;;;4.00;2.57;;;10.60;99.90;;;;;;5053782;28;20652;-80
2023/05/08 07:37:39;;;;;;;5.47;2.30;;;10.70;99.90;;;;;;5054997;28;20301;-82
2023/05/08 07:40:06;;;;;;;4.40;2.13;;;10.70;99.90;;;;;;5053795;28;20648;-80
2023/05/08 07:42:40;;;;;;;4.43;2.43;;;10.70;99.90;;;;;;5053408;28;20227;-81
2023/05/08 07:45:09;;;;;;;4.73;3.03;;;10.70;99.90;;;;;;5053836;28;20209;-81
2023/05/08 07:47:37;;;;;;;4.83;2.60;;;10.80;99.90;;;;;;5053282;28;20660;-81
2023/05/08 07:50:05;;;;;;;5.97;2.80;;;10.90;99.90;;;;;;5071254;28;20217;-80
2023/05/08 07:52:32;;;;;;;8.27;3.10;;;11.00;99.90;;;;;;5073084;28;20220;-80
2023/05/08 07:54:59;;;;;;;7.23;2.93;;;11.00;99.90;;;;;;5074818;28;20663;-84
2023/05/08 07:57:26;;;;;;;3.60;2.60;;;11.10;99.90;;;;;;5076461;28;20222;-74
2023/05/08 07:59:52;;;;;;;6.10;3.00;;;11.20;99.90;;;;;;5077265;28;20210;-79
2023/05/08 08:02:23;;;;;;;4.60;2.97;;;11.40;99.90;;;;;;5076210;28;20291;-86
2023/05/08 08:04:50;;;;;;;5.40;2.87;;;11.40;99.90;;;;;;5074384;28;20194;-87
2023/05/08 08:07:17;;;;;;;4.37;2.53;;;11.40;99.90;;;;;;5073614;28;20609;-88
2023/05/08 08:09:44;;;;;;;5.53;2.70;;;11.60;99.90;;;;;;5073625;28;20198;-86
2023/05/08 08:12:11;;;;;;;5.50;2.80;;;12.60;99.90;;;;;;5073441;28;20202;-84
2023/05/08 08:14:38;;;;;;;4.00;2.53;;;13.60;99.90;;;;;;5073189;28;20669;-77
2023/05/08 08:17:05;;;;;;;3.77;2.63;;;14.70;99.90;;;;;;5074665;28;20225;-76
2023/05/08 08:19:32;;;;;;;4.03;2.40;;;15.20;99.90;;;;;;5075683;28;20244;-87
2023/05/08 08:21:59;;;;;;;6.30;2.70;;;15.60;99.90;;;;;;5056581;28;20226;-86
2023/05/08 08:24:28;;;;;;;5.13;2.70;;;16.20;99.90;;;;;;5072275;28;20194;-72
2023/05/08 08:26:54;;;;;;;6.90;2.80;;;16.00;99.90;;;;;;5073968;28;20252;-72
2023/05/08 08:29:21;;;;;;;5.70;2.97;;;15.80;99.90;;;;;;5055969;28;20225;-83
2023/05/08 08:31:48;;;;;;;4.07;2.53;;;15.60;99.90;;;;;;5072840;28;20582;-74
2023/05/08 08:34:15;;;;;;;3.00;2.13;;;15.40;99.90;;;;;;5072842;28;20602;-72
2023/05/08 08:36:42;;;;;;;4.53;2.13;;;15.50;99.90;;;;;;5055564;28;20290;-74
2023/05/08 08:39:09;;;;;;;3.67;2.33;;;15.70;99.90;;;;;;5072725;28;20198;-81
2023/05/08 08:41:39;;;;;;;4.30;2.50;;;15.90;99.90;;;;;;5074370;28;20214;-72
2023/05/08 08:44:06;;;;;;;5.40;2.40;;;16.20;99.90;;;;;;5075549;28;20190;-81
2023/05/08 08:46:37;;;;;;;3.50;2.30;;;16.10;99.90;;;;;;5074261;28;20222;-73
2023/05/08 08:49:07;;;;;;;3.30;2.23;;;15.60;99.90;;;;;;5032216;28;20199;-73
2023/05/08 08:51:48;;;;;;;3.23;2.13;;;15.80;99.90;;;;;;5053348;28;20301;-73
2023/05/08 08:54:20;;;;;;;4.37;2.23;;;16.30;99.90;;;;;;5036879;28;20215;-74
2023/05/08 08:56:48;;;;;;;4.93;2.10;;;16.70;99.90;;;;;;5053708;28;20227;-82
2023/05/08 08:59:17;;;;;;;6.37;2.20;;;16.80;99.20;;;;;;5038900;28;20248;-82
2023/05/08 09:01:47;;;;;;;3.40;2.23;;;16.70;99.90;;;;;;5053498;28;20219;-82
2023/05/08 09:04:15;;;;;;;3.13;2.03;;;16.70;99.90;;;;;;5052563;28;20286;-82
2023/05/08 09:06:44;;;;;;;2.80;2.20;;;17.00;97.60;;;;;;5051804;28;20203;-83
2023/05/08 09:09:12;;;;;;;4.17;2.17;;;17.00;98.90;;;;;;5054233;28;20316;-85
2023/05/08 09:11:40;;;;;;;2.73;1.97;;;17.10;95.90;;;;;;5053873;28;20179;-82
2023/05/08 09:14:08;;;;;;;2.80;1.90;;;16.90;94.80;;;;;;5061506;28;20203;-88
2023/05/08 09:16:35;;;;;;;4.03;2.00;;;16.90;96.10;;;;;;5053403;28;20201;-78
2023/05/08 09:19:03;;;;;;;2.80;2.00;;;17.30;94.80;;;;;;5051777;28;20202;-84
2023/05/08 09:21:31;;;;;;;4.90;2.00;;;17.60;93.60;;;;;;5056865;28;20229;-88
2023/05/08 09:24:02;;;;;;;3.20;2.17;;;17.70;91.80;;;;;;5051903;28;20203;-83
2023/05/08 09:26:37;;;;;;;3.47;2.40;;;17.50;90.80;;;;;;5052161;28;20208;-80
2023/05/08 09:29:14;;;;;;;4.03;2.23;;;17.50;91.20;;;;;;5061244;28;20255;-89
2023/05/08 09:31:52;;;;;;;2.40;2.00;;;17.70;87.90;;;;;;5058545;28;20230;-88
2023/05/08 09:34:27;;;;;;;5.07;1.83;;;18.20;90.20;;;;;;5053914;28;20198;-88
2023/05/08 09:37:04;;;;;;;5.57;2.00;;;18.30;83.50;;;;;;5052461;28;20742;-86
2023/05/08 09:39:31;;;;;;;2.97;2.10;;;18.80;83.90;;;;;;5053427;28;20209;-83
2023/05/08 09:41:59;;;;;;;5.53;2.10;;;19.00;81.20;;;;;;5036187;28;20227;-88
2023/05/08 09:44:26;;;;;;;4.80;1.90;;;18.80;75.60;;;;;;5055438;28;20186;-88
2023/05/08 09:47:16;;;;;;;3.37;1.87;;;18.10;76.00;;;;;;5036131;28;20195;-88
2023/05/08 09:49:56;;;;;;;3.00;1.90;;;17.60;81.80;;;;;;5065955;28;20208;-85
2023/05/08 09:52:23;;;;;;;3.23;1.90;;;17.60;78.70;;;;;;5071210;28;20194;-83
2023/05/08 09:55:08;;;;;;;3.33;2.00;;;18.10;77.90;;;;;;5072538;28;20259;-86
2023/05/08 09:57:50;;;;;;;2.37;1.97;;;18.50;73.80;;;;;;5057395;28;20198;-86
2023/05/08 10:00:18;;;;;;;3.63;2.10;;;18.70;72.30;;;;;;5075360;28;20201;-90
2023/05/08 10:03:00;;;;;;;2.50;1.93;;;19.40;75.40;;;;;;5083699;28;20297;-91
2023/05/08 10:05:33;;;;;;;3.87;1.77;;;19.90;70.10;;;;;;5063337;28;20550;-90
2023/05/08 10:08:28;;;;;;;4.77;2.10;;;20.20;70.30;;;;;;5066664;28;20205;-85
2023/05/08 10:11:15;;;;;;;2.63;1.90;;;20.70;65.70;;;;;;5088288;28;20262;-88
2023/05/08 10:13:43;;;;;;;4.47;2.03;;;20.90;64.10;;;;;;5084488;28;20666;-84
2023/05/08 10:16:33;;;;;;;2.70;2.00;;;20.90;61.70;;;;;;5078612;28;20225;-89
2023/05/08 10:19:17;;;;;;;3.50;1.83;;;21.20;59.20;;;;;;5074442;28;20299;-79
2023/05/08 10:21:48;;;;;;;3.93;2.00;;;21.10;58.00;;;;;;5053048;28;20352;-81
2023/05/08 10:24:32;;;;;;;3.17;2.00;;;20.90;59.90;;;;;;5061966;28;20197;-79
2023/05/08 10:27:26;;;;;;;2.87;2.30;;;21.10;62.50;;;;;;5072540;28;20245;-78
2023/05/08 10:29:58;;;;;;;4.17;2.27;;;21.60;59.80;;;;;;5072458;28;21115;-78
2023/05/08 10:32:31;;;;;;;2.90;2.03;;;22.10;58.00;;;;;;5083506;28;20662;-79
2023/05/08 10:34:59;;;;;;;2.85;2.05;;;22.20;57.30;;;;;;5052290;28;20208;-79
2023/05/08 10:37:29;;;;;;;3.10;2.40;;;22.20;56.90;;;;;;5052107;28;20186;-85
2023/05/08 10:40:01;;;;;;;2.45;2.10;;;22.20;54.90;;;;;;5036151;28;20660;-70
2023/05/08 10:42:29;;;;;;;3.42;2.10;;;22.40;55.20;;;;;;5052389;28;20222;-72
2023/05/08 10:44:56;;;;;;;2.33;1.95;;;22.60;56.60;;;;;;5069340;28;20201;-71
2023/05/08 10:48:00;;;;;;;4.45;2.38;;;22.60;55.20;;;;;;5052113;28;20201;-79
2023/05/08 10:51:05;;;;;;;4.53;2.40;;;22.40;57.20;;;;;;5055226;28;20236;-79
2023/05/08 10:54:01;;;;;;;3.78;2.20;;;21.90;60.20;;;;;;5049990;28;20667;-82
2023/05/08 10:56:28;;;;;;;3.30;2.40;;;21.90;62.80;;;;;;5051138;28;20329;-79
2023/05/08 10:58:57;;;;;;;2.50;2.30;;;22.00;60.40;;;;;;5051708;28;20191;-78
2023/05/08 11:01:25;;;;;;;4.30;2.22;;;22.00;60.10;;;;;;5051053;28;20278;-78
2023/05/08 11:03:54;;;;;;;5.68;2.30;;;22.00;59.80;;;;;;5050474;28;20194;-75
2023/05/08 11:06:40;;;;;;;3.90;2.03;;;22.50;60.60;;;;;;5049698;28;20194;-80
2023/05/08 11:09:26;;;;;;;3.03;2.40;;;23.00;62.10;;;;;;5049555;28;20198;-77
2023/05/08 11:12:06;;;;;;;2.90;2.22;;;23.00;58.70;;;;;;5049581;28;20198;-79
2023/05/08 11:14:37;;;;;;;3.80;2.20;;;23.40;58.30;;;;;;5049908;28;20191;-78
2023/05/08 11:17:05;;;;;;;3.08;2.40;;;23.00;56.90;;;;;;5033603;28;20318;-79
2023/05/08 11:19:33;;;;;;;6.75;2.10;;;23.00;54.30;;;;;;5049872;28;20568;-85
2023/05/08 11:22:18;;;;;;;2.55;2.25;;;22.60;56.10;;;;;;5049337;28;20245;-76
2023/05/08 11:24:58;;;;;;;3.42;2.50;;;22.40;54.80;;;;;;5066262;28;20190;-76
2023/05/08 11:27:36;;;;;;;3.22;2.30;;;22.10;55.90;;;;;;5071219;28;20209;-78
2023/05/08 11:30:31;;;;;;;3.97;2.30;;;22.40;56.30;;;;;;5037604;28;20248;-82
2023/05/08 11:33:19;;;;;;;4.93;2.20;;;22.00;56.30;;;;;;5068899;28;20220;-81
2023/05/08 11:35:56;;;;;;;2.78;2.10;;;21.80;58.60;;;;;;5071070;28;20197;-80
2023/05/08 11:38:23;;;;;;;3.63;2.30;;;21.20;56.60;;;;;;5070160;28;20917;-83
2023/05/08 11:40:58;;;;;;;3.63;2.30;;;21.30;56.90;;;;;;5054816;28;20290;-83
2023/05/08 11:43:30;;;;;;;5.07;2.20;;;21.50;57.20;;;;;;5070747;28;20218;-83
2023/05/08 11:46:01;;;;;;;7.15;2.42;;;22.10;56.50;;;;;;5078514;28;20218;-83
2023/05/08 11:48:28;;;;;;;3.80;2.03;;;22.40;55.40;;;;;;5074575;28;20191;-84
2023/05/08 11:50:55;;;;;;;3.05;2.20;;;22.80;56.00;;;;;;5051709;28;20297;-83
2023/05/08 11:53:22;;;;;;;6.07;2.20;;;23.00;53.80;;;;;;5057648;28;20218;-90
2023/05/08 11:55:54;;;;;;;3.72;2.20;;;23.00;54.20;;;;;;5064898;28;20292;-89
2023/05/08 11:58:21;;;;;;;3.20;2.05;;;23.50;55.00;;;;;;5059510;28;20213;-81
2023/05/08 12:00:49;;;;;;;2.63;2.00;;;23.70;52.20;;;;;;5063126;28;20198;-88
2023/05/08 12:03:20;;;;;;;3.80;2.30;;;23.80;52.30;;;;;;5059594;28;20580;-85
2023/05/08 12:05:49;;;;;;;3.22;2.35;;;23.80;52.30;;;;;;5056284;28;20187;-88
2023/05/08 12:08:17;;;;;;;3.15;1.92;;;23.20;52.50;;;;;;5057394;28;20198;-85
2023/05/08 12:10:55;;;;;;;4.63;2.00;;;22.80;53.50;;;;;;5056798;28;20195;-86
2023/05/08 12:13:29;;;;;;;3.30;2.17;;;22.80;53.00;;;;;;5060510;28;20199;-90
2023/05/08 12:15:58;;;;;;;3.63;2.13;;;22.60;52.00;;;;;;5059624;28;20198;-87
2023/05/08 12:18:27;;;;;;;3.10;2.17;;;22.10;55.20;;;;;;5061139;28;20226;-78
2023/05/08 12:20:58;;;;;;;3.65;2.30;;;21.90;57.30;;;;;;5061366;28;20216;-92
2023/05/08 12:23:28;;;;;;;4.38;2.20;;;22.50;54.20;;;;;;5032598;28;20244;-89
2023/05/08 12:25:59;;;;;;;13.25;2.50;;;22.60;52.40;;;;;;5085070;28;20240;-84
2023/05/08 12:28:27;;;;;;;3.47;2.50;;;22.90;52.00;;;;;;5081716;28;20202;-94
2023/05/08 12:31:04;;;;;;;2.97;2.00;;;23.40;52.00;;;;;;5086506;28;20175;-75
2023/05/08 12:33:37;;;;;;;2.95;2.17;;;23.40;50.10;;;;;;5072669;28;20229;-85
2023/05/08 12:36:05;;;;;;;3.05;2.22;;;23.70;51.80;;;;;;5062896;28;20206;-91
2023/05/08 12:38:32;;;;;;;3.17;1.92;;;23.30;51.10;;;;;;5081290;28;20190;-85
2023/05/08 12:41:03;;;;;;;3.30;2.20;;;23.10;50.10;;;;;;5077346;28;20206;-88
2023/05/08 12:43:31;;;;;;;4.72;1.95;;;23.10;51.10;;;;;;5059383;28;20218;-88
2023/05/08 12:46:03;;;;;;;4.15;2.17;;;23.00;49.60;;;;;;5097647;28;20186;-89
2023/05/08 12:48:31;;;;;;;2.75;2.20;;;23.50;49.00;;;;;;5056971;28;20199;-88
2023/05/08 12:51:03;;;;;;;3.13;2.15;;;23.70;49.60;;;;;;5057240;28;20199;-89
2023/05/08 12:53:31;;;;;;;2.85;2.13;;;23.80;50.20;;;;;;5060417;28;20222;-87
2023/05/08 12:56:03;;;;;;;3.15;1.98;;;24.10;49.30;;;;;;5055229;28;20233;-87
2023/05/08 12:58:32;;;;;;;3.63;2.17;;;24.20;48.70;;;;;;5053675;28;20198;-85
2023/05/08 13:01:15;;;;;;;4.22;2.08;;;24.60;48.10;;;;;;5053422;28;20273;-81
2023/05/08 13:03:42;;;;;;;2.50;1.92;;;24.80;47.20;;;;;;5056040;28;20222;-85
2023/05/08 13:06:19;;;;;;;2.80;1.88;;;25.00;48.00;;;;;;5037434;28;20300;-78
2023/05/08 13:08:53;;;;;;;3.03;2.08;;;24.30;48.40;;;;;;5056291;28;20252;-77